Time;durP1;ratioP1;P1;durP2;ratioP2;P2;SDS_P1;SDS_P2;PMS_P1;PMS_P2;Temp;Humidity;BMP_temperature;BMP_pressure;BME280_temperature;BME280_humidity;BME280_pressure;Samples;Min_cycle;Max_cycle;Signal;HPM_P1;HPM_P2
2023/12/30 00:01:33;;;;;;;;;;;6.50;99.90;;;;;;5045360;28;19990;-76
2023/12/30 00:03:59;;;;;;;;;;;6.30;99.90;;;;;;5047191;28;19989;-75
2023/12/30 00:06:24;;;;;;;;;;;6.30;99.90;;;;;;5044102;28;20283;-76
2023/12/30 00:08:50;;;;;;;;;;;6.30;99.90;;;;;;5066202;28;20311;-76
2023/12/30 00:11:15;;;;;;;;;;;6.30;99.90;;;;;;5043388;28;20392;-76
2023/12/30 00:13:41;;;;;;;;;;;6.20;99.90;;;;;;5044301;28;20363;-75
2023/12/30 00:16:06;;;;;;;;;;;6.30;99.90;;;;;;5052233;28;20283;-76
2023/12/30 00:18:32;;;;;;;;;;;6.20;99.90;;;;;;5062951;28;19931;-76
2023/12/30 00:20:58;;;;;;;;;;;6.40;99.90;;;;;;5039006;28;20011;-76
2023/12/30 00:23:24;;;;;;;;;;;6.20;99.90;;;;;;5032697;28;19928;-76
2023/12/30 00:25:49;;;;;;;;;;;6.20;99.90;;;;;;5032083;28;20043;-76
2023/12/30 00:28:15;;;;;;;;;;;7.40;99.90;;;;;;5031005;28;20096;-76
2023/12/30 00:30:40;;;;;;;;;;;6.40;99.90;;;;;;5042655;28;19926;-76
2023/12/30 00:33:06;;;;;;;;;;;6.20;99.90;;;;;;5068915;28;19921;-76
2023/12/30 00:35:31;;;;;;;;;;;6.30;99.90;;;;;;5038423;28;19920;-76
2023/12/30 00:37:57;;;;;;;;;;;6.30;99.90;;;;;;5043036;28;19920;-76
2023/12/30 00:40:22;;;;;;;;;;;6.30;99.90;;;;;;5052018;28;20280;-76
2023/12/30 00:42:48;;;;;;;;;;;6.30;99.90;;;;;;5048871;28;20276;-76
2023/12/30 00:45:14;;;;;;;;;;;6.20;99.90;;;;;;5049838;28;20357;-76
2023/12/30 00:47:39;;;;;;;;;;;6.20;99.90;;;;;;5046698;28;20560;-76
2023/12/30 00:50:05;;;;;;;;;;;6.20;99.90;;;;;;5035062;28;19935;-77
2023/12/30 00:52:30;;;;;;;;;;;6.20;99.90;;;;;;5036240;28;19974;-75
2023/12/30 00:54:56;;;;;;;;;;;6.20;99.90;;;;;;5051287;28;20288;-76
2023/12/30 00:57:21;;;;;;;;;;;6.20;99.90;;;;;;5042495;28;20371;-76
2023/12/30 00:59:47;;;;;;;;;;;6.20;99.90;;;;;;5034403;28;19920;-75
2023/12/30 01:02:12;;;;;;;;;;;6.30;99.90;;;;;;5045671;28;19924;-75
2023/12/30 01:04:38;;;;;;;;;;;6.30;99.90;;;;;;5040746;28;20571;-75
2023/12/30 01:07:03;;;;;;;;;;;6.20;99.90;;;;;;5051881;28;20282;-75
2023/12/30 01:09:29;;;;;;;;;;;6.20;99.90;;;;;;5045417;28;19920;-76
2023/12/30 01:11:55;;;;;;;;;;;6.20;99.90;;;;;;5032193;28;19927;-75
2023/12/30 01:14:20;;;;;;;;;;;6.30;99.90;;;;;;5031387;28;20016;-76
2023/12/30 01:16:46;;;;;;;;;;;6.20;99.90;;;;;;5035334;28;19927;-76
2023/12/30 01:19:11;;;;;;;;;;;6.20;99.90;;;;;;5039558;28;19927;-75
2023/12/30 01:21:37;;;;;;;;;;;6.30;99.90;;;;;;5049763;28;20023;-76
2023/12/30 01:24:02;;;;;;;;;;;6.20;99.90;;;;;;5047644;28;20394;-76
2023/12/30 01:26:28;;;;;;;;;;;6.20;99.90;;;;;;5049860;28;20493;-76
2023/12/30 01:28:53;;;;;;;;;;;6.40;99.90;;;;;;5033425;28;20360;-76
2023/12/30 01:31:19;;;;;;;;;;;6.50;99.90;;;;;;5032142;28;19927;-76
2023/12/30 01:33:45;;;;;;;;;;;6.30;99.90;;;;;;5040637;28;19921;-76
2023/12/30 01:36:11;;;;;;;;;;;6.20;99.90;;;;;;5041725;28;20369;-76
2023/12/30 01:38:36;;;;;;;;;;;6.20;99.90;;;;;;5031342;28;20027;-75
2023/12/30 01:41:02;;;;;;;;;;;6.30;99.90;;;;;;5040884;28;20409;-77
2023/12/30 01:43:28;;;;;;;;;;;6.20;99.90;;;;;;5032781;28;20554;-75
2023/12/30 01:46:00;;;;;;;;;;;6.20;99.90;;;;;;5034251;28;19928;-76
2023/12/30 01:48:26;;;;;;;;;;;6.20;99.90;;;;;;5041545;28;19978;-76
2023/12/30 01:50:52;;;;;;;;;;;6.20;99.90;;;;;;5045704;28;19928;-76
2023/12/30 01:53:18;;;;;;;;;;;6.20;99.90;;;;;;5044934;28;19999;-75
2023/12/30 01:55:44;;;;;;;;;;;6.20;99.90;;;;;;5043837;28;19959;-76
2023/12/30 01:58:10;;;;;;;;;;;6.20;99.90;;;;;;5048777;28;19924;-75
2023/12/30 02:00:36;;;;;;;;;;;6.20;99.90;;;;;;5035863;28;20364;-75
2023/12/30 02:03:03;;;;;;;;;;;6.30;99.90;;;;;;5043010;28;20402;-77
2023/12/30 02:05:28;;;;;;;;;;;6.30;99.90;;;;;;5048829;28;19972;-76
2023/12/30 02:07:54;;;;;;;;;;;6.30;99.90;;;;;;5037133;28;19921;-76
2023/12/30 02:10:20;;;;;;;;;;;6.60;99.90;;;;;;5046413;28;20434;-76
2023/12/30 02:12:45;;;;;;;;;;;6.50;99.90;;;;;;5046704;28;20806;-75
2023/12/30 02:15:15;;;;;;;;;;;6.40;99.90;;;;;;5042112;28;19969;-76
2023/12/30 02:17:41;;;;;;;;;;;6.40;99.90;;;;;;5038777;28;19925;-75
2023/12/30 02:20:06;;;;;;;;;;;6.40;99.90;;;;;;5041597;28;20021;-76
2023/12/30 02:22:32;;;;;;;;;;;6.50;99.90;;;;;;5051175;28;19924;-76
2023/12/30 02:24:59;;;;;;;;;;;6.50;99.90;;;;;;5048073;28;19943;-75
2023/12/30 02:27:25;;;;;;;;;;;6.50;99.90;;;;;;5045038;28;19927;-76
2023/12/30 02:29:51;;;;;;;;;;;6.50;99.90;;;;;;5037493;28;19920;-76
2023/12/30 02:32:17;;;;;;;;;;;6.60;99.90;;;;;;5051529;28;19920;-77
2023/12/30 02:34:42;;;;;;;;;;;6.60;99.90;;;;;;5050030;28;19928;-77
2023/12/30 02:37:08;;;;;;;;;;;6.60;99.90;;;;;;5052975;28;19932;-76
2023/12/30 02:39:33;;;;;;;;;;;6.80;99.90;;;;;;5041817;28;19921;-77
2023/12/30 02:41:59;;;;;;;;;;;6.60;99.90;;;;;;5040508;28;19920;-76
2023/12/30 02:44:25;;;;;;;;;;;6.60;99.90;;;;;;5071668;28;19927;-76
2023/12/30 02:46:50;;;;;;;;;;;6.70;99.90;;;;;;5053044;28;19920;-76
2023/12/30 02:49:16;;;;;;;;;;;6.70;99.90;;;;;;5045606;28;20367;-76
2023/12/30 02:51:41;;;;;;;;;;;6.70;99.90;;;;;;5053113;28;19966;-77
2023/12/30 02:54:07;;;;;;;;;;;7.00;99.90;;;;;;5037432;28;19925;-76
2023/12/30 02:56:32;;;;;;;;;;;6.80;99.90;;;;;;5041674;28;19931;-78
2023/12/30 02:58:59;;;;;;;;;;;6.80;99.90;;;;;;5050613;28;20106;-76
2023/12/30 03:01:27;;;;;;;;;;;6.80;99.90;;;;;;5043240;28;19920;-77
2023/12/30 03:03:53;;;;;;;;;;;6.80;99.90;;;;;;5051564;28;19924;-76
2023/12/30 03:06:19;;;;;;;;;;;7.10;99.90;;;;;;5048824;28;19921;-75
2023/12/30 03:08:45;;;;;;;;;;;6.90;99.90;;;;;;5045027;28;19922;-75
2023/12/30 03:11:11;;;;;;;;;;;6.90;99.90;;;;;;5040192;28;19927;-76
2023/12/30 03:13:36;;;;;;;;;;;6.90;99.90;;;;;;5033392;28;20296;-76
2023/12/30 03:16:03;;;;;;;;;;;7.00;99.90;;;;;;5033425;28;19925;-76
2023/12/30 03:18:28;;;;;;;;;;;7.00;99.90;;;;;;5036214;28;20059;-76
2023/12/30 03:20:54;;;;;;;;;;;7.00;99.90;;;;;;5049829;28;20006;-75
2023/12/30 03:23:19;;;;;;;;;;;7.00;99.90;;;;;;5049307;28;19966;-76
2023/12/30 03:25:45;;;;;;;;;;;7.00;99.90;;;;;;5041048;28;19935;-75
2023/12/30 03:28:10;;;;;;;;;;;7.00;99.90;;;;;;5046722;28;19920;-76
2023/12/30 03:30:36;;;;;;;;;;;7.10;99.90;;;;;;5049548;28;19939;-77
2023/12/30 03:33:01;;;;;;;;;;;7.20;99.90;;;;;;5044045;28;19930;-76
2023/12/30 03:35:27;;;;;;;;;;;7.10;99.90;;;;;;5041465;28;19921;-75
2023/12/30 03:37:52;;;;;;;;;;;7.10;99.90;;;;;;5043354;28;20003;-76
2023/12/30 03:40:18;;;;;;;;;;;7.10;99.90;;;;;;5049184;28;20340;-75
2023/12/30 03:42:43;;;;;;;;;;;7.30;99.90;;;;;;5047252;28;19971;-75
2023/12/30 03:45:09;;;;;;;;;;;7.10;99.90;;;;;;5050805;28;19920;-76
2023/12/30 03:47:35;;;;;;;;;;;7.10;99.90;;;;;;5042001;28;19924;-75
2023/12/30 03:50:01;;;;;;;;;;;7.10;99.90;;;;;;5042233;28;19960;-76
2023/12/30 03:52:28;;;;;;;;;;;7.10;99.90;;;;;;5043590;28;20007;-76
2023/12/30 03:54:55;;;;;;;;;;;7.20;99.90;;;;;;5036192;28;19921;-75
2023/12/30 03:57:21;;;;;;;;;;;7.20;99.90;;;;;;5040352;28;19930;-75
2023/12/30 03:59:46;;;;;;;;;;;7.10;99.90;;;;;;5050379;28;19921;-76
2023/12/30 04:02:12;;;;;;;;;;;7.30;99.90;;;;;;5037448;28;19925;-75
2023/12/30 04:04:40;;;;;;;;;;;7.10;99.90;;;;;;5044031;28;19921;-77
2023/12/30 04:07:05;;;;;;;;;;;7.10;99.90;;;;;;5035632;28;19923;-77
2023/12/30 04:09:31;;;;;;;;;;;7.10;99.90;;;;;;5048040;28;19944;-76
2023/12/30 04:11:56;;;;;;;;;;;7.40;99.90;;;;;;5048108;28;20402;-75
2023/12/30 04:14:22;;;;;;;;;;;7.10;99.90;;;;;;5048743;28;19929;-76
2023/12/30 04:16:47;;;;;;;;;;;7.10;99.90;;;;;;5044774;28;20460;-76
2023/12/30 04:19:15;;;;;;;;;;;7.10;99.90;;;;;;5039844;28;19920;-75
2023/12/30 04:21:40;;;;;;;;;;;7.00;99.90;;;;;;5047028;28;19924;-75
2023/12/30 04:24:06;;;;;;;;;;;7.10;99.90;;;;;;5048231;28;19977;-75
2023/12/30 04:26:31;;;;;;;;;;;7.00;99.90;;;;;;5036283;28;19963;-75
2023/12/30 04:28:57;;;;;;;;;;;7.00;99.90;;;;;;5044010;28;20019;-74
2023/12/30 04:31:22;;;;;;;;;;;7.00;99.90;;;;;;5035793;28;19921;-76
2023/12/30 04:33:48;;;;;;;;;;;6.90;99.90;;;;;;5044712;28;19916;-75
2023/12/30 04:36:13;;;;;;;;;;;6.90;99.90;;;;;;5040303;28;19974;-76
2023/12/30 04:38:39;;;;;;;;;;;6.90;99.90;;;;;;5050681;28;19972;-76
2023/12/30 04:41:05;;;;;;;;;;;7.00;99.90;;;;;;5048032;28;19978;-76
2023/12/30 04:43:30;;;;;;;;;;;7.00;99.90;;;;;;5034636;28;19938;-76
2023/12/30 04:45:56;;;;;;;;;;;7.00;99.90;;;;;;5042534;28;19928;-75
2023/12/30 04:48:21;;;;;;;;;;;7.00;99.90;;;;;;5036485;28;19921;-76
2023/12/30 04:50:47;;;;;;;;;;;7.00;99.90;;;;;;5039289;28;20291;-75
2023/12/30 04:53:12;;;;;;;;;;;7.00;99.90;;;;;;5041522;28;19951;-76
2023/12/30 04:55:38;;;;;;;;;;;7.00;99.90;;;;;;5049500;28;20025;-76
2023/12/30 04:58:03;;;;;;;;;;;7.00;99.90;;;;;;5048543;28;19971;-76
2023/12/30 05:00:29;;;;;;;;;;;7.00;99.90;;;;;;5063755;28;20033;-76
2023/12/30 05:02:54;;;;;;;;;;;7.00;99.90;;;;;;5030187;28;19920;-76
2023/12/30 05:05:20;;;;;;;;;;;7.10;99.90;;;;;;5031717;28;19979;-76
2023/12/30 05:07:45;;;;;;;;;;;7.10;99.90;;;;;;5031988;28;19970;-76
2023/12/30 05:10:11;;;;;;;;;;;7.10;99.90;;;;;;5049441;28;19982;-75
2023/12/30 05:12:37;;;;;;;;;;;7.10;99.90;;;;;;5051197;28;19920;-75
2023/12/30 05:15:03;;;;;;;;;;;7.10;99.90;;;;;;5049181;28;19994;-76
2023/12/30 05:17:31;;;;;;;;;;;7.10;99.90;;;;;;5051251;28;19920;-75
2023/12/30 05:19:56;;;;;;;;;;;7.10;99.90;;;;;;5047903;28;19927;-76
2023/12/30 05:22:22;;;;;;;;;;;7.10;99.90;;;;;;5039594;28;19924;-76
2023/12/30 05:24:47;;;;;;;;;;;7.20;99.90;;;;;;5051401;28;19927;-77
2023/12/30 05:27:13;;;;;;;;;;;7.20;99.90;;;;;;5050528;28;19966;-77
2023/12/30 05:29:38;;;;;;;;;;;7.20;99.90;;;;;;5049541;28;19977;-75
2023/12/30 05:32:05;;;;;;;;;;;7.20;99.90;;;;;;5067103;28;19920;-75
2023/12/30 05:34:30;;;;;;;;;;;7.10;99.90;;;;;;5050855;28;19920;-76
2023/12/30 05:36:56;;;;;;;;;;;7.10;99.90;;;;;;5050509;28;19928;-76
2023/12/30 05:39:22;;;;;;;;;;;7.10;99.90;;;;;;5052301;28;19924;-76
2023/12/30 05:41:47;;;;;;;;;;;7.10;99.90;;;;;;5053876;28;20342;-76
2023/12/30 05:44:13;;;;;;;;;;;7.10;99.90;;;;;;5053023;28;20283;-76
2023/12/30 05:46:38;;;;;;;;;;;7.10;99.90;;;;;;5055763;28;19920;-76
2023/12/30 05:49:04;;;;;;;;;;;7.10;99.90;;;;;;5054322;28;19927;-77
2023/12/30 05:51:29;;;;;;;;;;;7.10;99.90;;;;;;5051811;28;19928;-76
2023/12/30 05:53:55;;;;;;;;;;;7.10;99.90;;;;;;5048089;28;19920;-77
2023/12/30 05:56:24;;;;;;;;;;;7.00;99.90;;;;;;5034882;28;19951;-76
2023/12/30 05:58:50;;;;;;;;;;;7.10;99.90;;;;;;5051636;28;20294;-76
2023/12/30 06:01:15;;;;;;;;;;;7.00;99.90;;;;;;5042100;28;20142;-76
2023/12/30 06:03:41;;;;;;;;;;;7.00;99.90;;;;;;5054479;28;20425;-76
2023/12/30 06:06:06;;;;;;;;;;;7.00;99.90;;;;;;5052921;28;19921;-76
2023/12/30 06:08:35;;;;;;;;;;;7.00;99.90;;;;;;5054616;28;19997;-76
2023/12/30 06:11:01;;;;;;;;;;;7.00;99.90;;;;;;5050428;28;19927;-76
2023/12/30 06:13:26;;;;;;;;;;;7.00;99.90;;;;;;5049657;28;19920;-76
2023/12/30 06:15:52;;;;;;;;;;;7.10;99.90;;;;;;5051148;28;20288;-76
2023/12/30 06:18:18;;;;;;;;;;;6.90;99.90;;;;;;5051198;28;19920;-76
2023/12/30 06:20:46;;;;;;;;;;;7.10;99.90;;;;;;5051175;28;20300;-77
2023/12/30 06:23:12;;;;;;;;;;;7.00;99.90;;;;;;5043697;28;19917;-75
2023/12/30 06:25:38;;;;;;;;;;;7.00;99.90;;;;;;5031010;28;19921;-76
2023/12/30 06:28:04;;;;;;;;;;;7.20;99.90;;;;;;5047734;28;19928;-76
2023/12/30 06:30:30;;;;;;;;;;;7.00;99.90;;;;;;5045083;28;19975;-76
2023/12/30 06:32:55;;;;;;;;;;;7.00;99.90;;;;;;5045839;28;19924;-76
2023/12/30 06:35:21;;;;;;;;;;;7.00;99.90;;;;;;5051433;28;19923;-76
2023/12/30 06:37:49;;;;;;;;;;;7.00;99.90;;;;;;5048485;28;20020;-77
2023/12/30 06:40:15;;;;;;;;;;;7.00;99.90;;;;;;5050741;28;20886;-76
2023/12/30 06:42:42;;;;;;;;;;;7.00;99.90;;;;;;5049289;28;19972;-74
2023/12/30 06:45:07;;;;;;;;;;;7.00;99.90;;;;;;5048616;28;19924;-76
2023/12/30 06:47:33;;;;;;;;;;;7.00;99.90;;;;;;5047744;28;19927;-76
2023/12/30 06:49:58;;;;;;;;;;;7.00;99.90;;;;;;5049944;28;20270;-77
2023/12/30 06:52:24;;;;;;;;;;;7.00;99.90;;;;;;5045617;28;20284;-75
2023/12/30 06:54:50;;;;;;;;;;;7.00;99.90;;;;;;5030287;28;19921;-76
2023/12/30 06:57:15;;;;;;;;;;;7.00;99.90;;;;;;5032286;28;19932;-76
2023/12/30 06:59:41;;;;;;;;;;;7.00;99.90;;;;;;5047048;28;19921;-76
2023/12/30 07:02:06;;;;;;;;;;;7.10;99.90;;;;;;5039941;28;19928;-76
2023/12/30 07:04:32;;;;;;;;;;;7.00;99.90;;;;;;5030017;28;19925;-76
2023/12/30 07:06:57;;;;;;;;;;;6.90;99.90;;;;;;5035179;28;19921;-76
2023/12/30 07:09:23;;;;;;;;;;;6.90;99.90;;;;;;5032789;28;20287;-75
2023/12/30 07:11:48;;;;;;;;;;;6.90;99.90;;;;;;5032896;28;20606;-75
2023/12/30 07:14:14;;;;;;;;;;;6.90;99.90;;;;;;5050403;28;19929;-76
2023/12/30 07:16:40;;;;;;;;;;;6.90;99.90;;;;;;5044345;28;19924;-75
2023/12/30 07:19:06;;;;;;;;;;;6.90;99.90;;;;;;5066514;28;19920;-76
2023/12/30 07:21:31;;;;;;;;;;;6.90;99.90;;;;;;5050197;28;20415;-75
2023/12/30 07:23:57;;;;;;;;;;;6.90;99.90;;;;;;5048272;28;19928;-76
2023/12/30 07:26:22;;;;;;;;;;;6.90;99.90;;;;;;5038187;28;19925;-77
2023/12/30 07:28:48;;;;;;;;;;;6.90;99.90;;;;;;5042220;28;19921;-76
2023/12/30 07:31:15;;;;;;;;;;;6.90;99.90;;;;;;5033218;28;20371;-76
2023/12/30 07:33:41;;;;;;;;;;;6.90;99.90;;;;;;5034491;28;19924;-76
2023/12/30 07:36:07;;;;;;;;;;;6.90;99.90;;;;;;5037023;28;19935;-75
2023/12/30 07:38:33;;;;;;;;;;;6.90;99.90;;;;;;5069162;28;19927;-76
2023/12/30 07:40:58;;;;;;;;;;;6.90;99.90;;;;;;5051400;28;20031;-76
2023/12/30 07:43:24;;;;;;;;;;;6.90;99.90;;;;;;5051469;28;19921;-75
2023/12/30 07:45:50;;;;;;;;;;;6.90;99.90;;;;;;5052986;28;19916;-76
2023/12/30 07:48:15;;;;;;;;;;;6.80;99.90;;;;;;5053273;28;19928;-75
2023/12/30 07:50:41;;;;;;;;;;;6.90;99.90;;;;;;5049881;28;19916;-76
2023/12/30 07:53:07;;;;;;;;;;;6.80;99.90;;;;;;5039548;28;19965;-75
2023/12/30 07:55:33;;;;;;;;;;;6.80;99.90;;;;;;5052398;28;19927;-75
2023/12/30 07:57:59;;;;;;;;;;;6.80;99.90;;;;;;5055264;28;19924;-75
2023/12/30 08:00:24;;;;;;;;;;;6.80;99.90;;;;;;5037584;28;19926;-75
2023/12/30 08:02:50;;;;;;;;;;;6.90;99.90;;;;;;5043550;28;19921;-75
2023/12/30 08:05:15;;;;;;;;;;;6.80;99.90;;;;;;5048461;28;19928;-75
2023/12/30 08:07:41;;;;;;;;;;;6.80;99.90;;;;;;5038957;28;19928;-74
2023/12/30 08:10:06;;;;;;;;;;;6.90;99.90;;;;;;5052451;28;19916;-74
2023/12/30 08:12:33;;;;;;;;;;;6.80;99.90;;;;;;5035316;28;19929;-76
2023/12/30 08:14:58;;;;;;;;;;;6.80;99.90;;;;;;5040476;28;19967;-75
2023/12/30 08:17:24;;;;;;;;;;;6.80;99.90;;;;;;5043199;28;20443;-75
2023/12/30 08:19:49;;;;;;;;;;;6.80;99.90;;;;;;5044784;28;20272;-74
2023/12/30 08:22:15;;;;;;;;;;;6.80;99.90;;;;;;5037992;28;19936;-74
2023/12/30 08:24:40;;;;;;;;;;;6.80;99.90;;;;;;5034798;28;19977;-75
2023/12/30 08:27:06;;;;;;;;;;;6.80;99.90;;;;;;5036580;28;20319;-75
2023/12/30 08:29:32;;;;;;;;;;;7.00;99.90;;;;;;5033371;28;20427;-76
2023/12/30 08:31:57;;;;;;;;;;;6.80;99.90;;;;;;5032591;28;19920;-75
2023/12/30 08:34:27;;;;;;;;;;;6.80;99.90;;;;;;5031538;28;19920;-75
2023/12/30 08:36:53;;;;;;;;;;;6.80;99.90;;;;;;5043777;28;19920;-76
2023/12/30 08:39:19;;;;;;;;;;;6.80;99.90;;;;;;5043931;28;20394;-76
2023/12/30 08:41:44;;;;;;;;;;;6.80;99.90;;;;;;5043794;28;20015;-77
2023/12/30 08:44:10;;;;;;;;;;;6.80;99.90;;;;;;5041178;28;19965;-77
2023/12/30 08:46:36;;;;;;;;;;;6.80;99.90;;;;;;5056994;28;19921;-76
2023/12/30 08:49:03;;;;;;;;;;;6.80;99.90;;;;;;5042782;28;19917;-75
2023/12/30 08:51:29;;;;;;;;;;;6.80;99.90;;;;;;5039372;28;20050;-77
2023/12/30 08:53:56;;;;;;;;;;;6.90;99.90;;;;;;5042227;28;20407;-76
2023/12/30 08:56:22;;;;;;;;;;;6.90;99.90;;;;;;5039805;28;20375;-77
2023/12/30 08:58:47;;;;;;;;;;;6.90;99.90;;;;;;5047946;28;20046;-75
2023/12/30 09:01:13;;;;;;;;;;;6.90;99.90;;;;;;5044743;28;19920;-76
2023/12/30 09:03:38;;;;;;;;;;;6.90;99.90;;;;;;5047403;28;19928;-77
2023/12/30 09:06:04;;;;;;;;;;;6.90;99.90;;;;;;5051365;28;19927;-77
2023/12/30 09:08:29;;;;;;;;;;;6.90;99.90;;;;;;5044644;28;19920;-77
2023/12/30 09:10:55;;;;;;;;;;;7.00;99.90;;;;;;5050137;28;20022;-75
2023/12/30 09:13:21;;;;;;;;;;;7.00;99.90;;;;;;5050598;28;19924;-75
2023/12/30 09:15:46;;;;;;;;;;;7.00;99.90;;;;;;5049718;28;19920;-74
2023/12/30 09:18:12;;;;;;;;;;;7.00;99.90;;;;;;5049312;28;19967;-73
2023/12/30 09:20:37;;;;;;;;;;;7.00;99.90;;;;;;5037362;28;20017;-74
2023/12/30 09:23:03;;;;;;;;;;;7.00;99.90;;;;;;5049772;28;20682;-74
2023/12/30 09:25:29;;;;;;;;;;;7.00;99.90;;;;;;5038652;28;19995;-74
2023/12/30 09:27:54;;;;;;;;;;;7.00;99.90;;;;;;5047847;28;19920;-74
2023/12/30 09:30:20;;;;;;;;;;;7.40;99.90;;;;;;5049340;28;19925;-74
2023/12/30 09:32:46;;;;;;;;;;;7.00;99.90;;;;;;5035012;28;19927;-76
2023/12/30 09:35:11;;;;;;;;;;;7.10;99.90;;;;;;5056783;28;20443;-75
2023/12/30 09:37:37;;;;;;;;;;;7.10;99.90;;;;;;5050945;28;20384;-73
2023/12/30 09:40:02;;;;;;;;;;;7.10;99.90;;;;;;5045489;28;20370;-74
2023/12/30 09:42:28;;;;;;;;;;;7.10;99.90;;;;;;5048156;28;20494;-74
2023/12/30 09:44:54;;;;;;;;;;;7.20;99.90;;;;;;5046445;28;20012;-75
2023/12/30 09:47:20;;;;;;;;;;;7.20;99.90;;;;;;5051599;28;19927;-75
2023/12/30 09:49:46;;;;;;;;;;;7.20;99.90;;;;;;5047739;28;19920;-74
2023/12/30 09:52:12;;;;;;;;;;;7.50;99.90;;;;;;5047140;28;20015;-75
2023/12/30 09:54:38;;;;;;;;;;;7.30;99.90;;;;;;5050002;28;20018;-74
2023/12/30 09:57:04;;;;;;;;;;;7.30;99.90;;;;;;5064919;28;19943;-74
2023/12/30 09:59:30;;;;;;;;;;;7.40;99.90;;;;;;5049629;28;20451;-75
2023/12/30 10:01:56;;;;;;;;;;;7.40;99.90;;;;;;5051084;28;19960;-74
2023/12/30 10:04:21;;;;;;;;;;;7.40;99.90;;;;;;5049683;28;20013;-75
2023/12/30 10:06:49;;;;;;;;;;;7.50;99.90;;;;;;5051732;28;20019;-75
2023/12/30 10:09:15;;;;;;;;;;;7.50;99.90;;;;;;5049436;28;19920;-75
2023/12/30 10:11:43;;;;;;;;;;;7.60;99.90;;;;;;5044513;28;19962;-75
2023/12/30 10:14:09;;;;;;;;;;;7.60;99.90;;;;;;5035552;28;20364;-75
2023/12/30 10:16:35;;;;;;;;;;;7.70;99.90;;;;;;5047638;28;19920;-75
2023/12/30 10:19:00;;;;;;;;;;;7.70;99.90;;;;;;5075491;28;19928;-75
2023/12/30 10:21:26;;;;;;;;;;;7.70;99.90;;;;;;5048040;28;19987;-75
2023/12/30 10:23:53;;;;;;;;;;;7.70;99.90;;;;;;5047579;28;19975;-75
2023/12/30 10:26:20;;;;;;;;;;;7.80;99.90;;;;;;5041426;28;19955;-74
2023/12/30 10:28:46;;;;;;;;;;;7.80;99.90;;;;;;5034738;28;19928;-78
2023/12/30 10:31:15;;;;;;;;;;;8.00;99.90;;;;;;5035224;28;20019;-75
2023/12/30 10:33:41;;;;;;;;;;;7.90;99.90;;;;;;5045503;28;19967;-75
2023/12/30 10:36:09;;;;;;;;;;;8.00;99.90;;;;;;5049054;28;19921;-75
2023/12/30 10:38:35;;;;;;;;;;;8.00;99.90;;;;;;5050688;28;20591;-75
2023/12/30 10:41:00;;;;;;;;;;;8.10;99.90;;;;;;5048968;28;19924;-75
2023/12/30 10:43:26;;;;;;;;;;;8.50;99.90;;;;;;5050121;28;19917;-74
2023/12/30 10:45:58;;;;;;;;;;;8.60;99.90;;;;;;5039662;28;20007;-73
2023/12/30 10:48:32;;;;;;;;;;;8.90;99.90;;;;;;5048751;28;19916;-73
2023/12/30 10:50:58;;;;;;;;;;;9.20;99.90;;;;;;5048276;28;19927;-73
2023/12/30 10:53:27;;;;;;;;;;;9.70;99.90;;;;;;5041482;28;20360;-73
2023/12/30 10:55:54;;;;;;;;;;;9.90;99.90;;;;;;5045848;28;20452;-73
2023/12/30 10:58:21;;;;;;;;;;;10.30;99.90;;;;;;5035657;28;19931;-74
2023/12/30 11:00:57;;;;;;;;;;;10.50;99.90;;;;;;5048758;28;19929;-74
2023/12/30 11:03:23;;;;;;;;;;;10.60;99.90;;;;;;5049252;28;20390;-72
2023/12/30 11:06:12;;;;;;;;;;;10.60;99.90;;;;;;5052037;28;20004;-73
2023/12/30 11:08:41;;;;;;;;;;;10.60;99.90;;;;;;5050544;28;19921;-74
2023/12/30 11:11:07;;;;;;;;;;;10.60;99.90;;;;;;5046267;28;19931;-74
2023/12/30 11:13:36;;;;;;;;;;;10.60;99.90;;;;;;5063067;28;19974;-74
2023/12/30 11:16:15;;;;;;;;;;;10.40;99.90;;;;;;5052582;28;20437;-75
2023/12/30 11:18:48;;;;;;;;;;;10.30;99.90;;;;;;5052379;28;19926;-73
2023/12/30 11:21:33;;;;;;;;;;;10.00;99.90;;;;;;5052938;28;20380;-74
2023/12/30 11:24:03;;;;;;;;;;;9.80;99.90;;;;;;5050632;28;19935;-74
2023/12/30 11:26:29;;;;;;;;;;;9.60;99.90;;;;;;5053138;28;20397;-74
2023/12/30 11:28:57;;;;;;;;;;;9.60;99.90;;;;;;5041513;28;19927;-75
2023/12/30 11:31:29;;;;;;;;;;;9.50;99.90;;;;;;5046181;28;20303;-74
2023/12/30 11:33:55;;;;;;;;;;;9.50;99.90;;;;;;5050009;28;19921;-75
2023/12/30 11:36:20;;;;;;;;;;;9.40;99.90;;;;;;5053338;28;19948;-74
2023/12/30 11:38:48;;;;;;;;;;;9.60;99.90;;;;;;5051423;28;19920;-75
2023/12/30 11:41:14;;;;;;;;;;;9.20;99.90;;;;;;5051093;28;19928;-76
2023/12/30 11:43:39;;;;;;;;;;;9.20;99.90;;;;;;5052374;28;19920;-76
2023/12/30 11:46:05;;;;;;;;;;;9.20;99.90;;;;;;5052880;28;20001;-74
2023/12/30 11:48:30;;;;;;;;;;;9.30;99.90;;;;;;5067982;28;19916;-75
2023/12/30 11:50:56;;;;;;;;;;;9.20;99.90;;;;;;5070095;28;20453;-75
2023/12/30 11:53:21;;;;;;;;;;;9.50;99.90;;;;;;5043967;28;19968;-74
2023/12/30 11:55:47;;;;;;;;;;;9.70;99.90;;;;;;5069712;28;19917;-75
2023/12/30 11:58:13;;;;;;;;;;;9.70;99.90;;;;;;5045341;28;19927;-74
2023/12/30 12:00:40;;;;;;;;;;;9.80;99.90;;;;;;5071020;28;19993;-76
2023/12/30 12:03:06;;;;;;;;;;;10.10;99.90;;;;;;5047282;28;19920;-75
2023/12/30 12:05:33;;;;;;;;;;;10.80;99.90;;;;;;5069015;28;19926;-75
2023/12/30 12:07:58;;;;;;;;;;;11.60;99.90;;;;;;5039998;28;20554;-75
2023/12/30 12:10:24;;;;;;;;;;;11.80;99.90;;;;;;5048268;28;20043;-75
2023/12/30 12:12:49;;;;;;;;;;;11.70;99.90;;;;;;5047746;28;19928;-74
2023/12/30 12:15:15;;;;;;;;;;;11.40;99.90;;;;;;5036695;28;19932;-76
2023/12/30 12:17:41;;;;;;;;;;;11.20;99.90;;;;;;5067813;28;19935;-75
2023/12/30 12:20:08;;;;;;;;;;;11.00;99.90;;;;;;5042572;28;19975;-75
2023/12/30 12:22:33;;;;;;;;;;;10.70;99.90;;;;;;5047071;28;19916;-75
2023/12/30 12:25:02;;;;;;;;;;;10.50;99.90;;;;;;5051833;28;19920;-74
2023/12/30 12:27:27;;;;;;;;;;;10.30;99.90;;;;;;5051705;28;19916;-74
2023/12/30 12:29:56;;;;;;;;;;;10.10;99.90;;;;;;5041466;28;19921;-75
2023/12/30 12:32:22;;;;;;;;;;;9.80;99.90;;;;;;5047834;28;20602;-74
2023/12/30 12:34:48;;;;;;;;;;;9.70;99.90;;;;;;5051346;28;19917;-73
2023/12/30 12:37:14;;;;;;;;;;;9.60;99.90;;;;;;5051062;28;19920;-75
2023/12/30 12:39:41;;;;;;;;;;;9.50;99.90;;;;;;5050393;28;19920;-76
2023/12/30 12:42:07;;;;;;;;;;;9.40;99.90;;;;;;5050552;28;20343;-75
2023/12/30 12:44:32;;;;;;;;;;;9.30;99.90;;;;;;5044080;28;19930;-76
2023/12/30 12:46:58;;;;;;;;;;;9.10;99.90;;;;;;5048412;28;20031;-76
2023/12/30 12:49:24;;;;;;;;;;;9.00;99.90;;;;;;5045775;28;20015;-76
2023/12/30 12:51:50;;;;;;;;;;;9.00;99.90;;;;;;5029384;28;20051;-75
2023/12/30 12:54:15;;;;;;;;;;;8.90;99.90;;;;;;5060106;28;20098;-75
2023/12/30 12:56:42;;;;;;;;;;;8.90;99.90;;;;;;5045498;28;19999;-77
2023/12/30 12:59:08;;;;;;;;;;;8.90;99.90;;;;;;5043062;28;19920;-76
2023/12/30 13:01:34;;;;;;;;;;;8.80;99.90;;;;;;5061177;28;19920;-75
2023/12/30 13:04:00;;;;;;;;;;;8.80;99.90;;;;;;5048577;28;19928;-75
2023/12/30 13:06:26;;;;;;;;;;;8.70;99.90;;;;;;5069422;28;19920;-77
2023/12/30 13:08:53;;;;;;;;;;;8.70;99.90;;;;;;5041027;28;20379;-75
2023/12/30 13:11:36;;;;;;;;;;;8.70;99.90;;;;;;5033579;28;20424;-76
2023/12/30 13:14:08;;;;;;;;;;;8.60;99.90;;;;;;5028919;28;20335;-76
2023/12/30 13:16:34;;;;;;;;;;;8.60;99.90;;;;;;5055317;28;19920;-77
2023/12/30 13:18:59;;;;;;;;;;;8.60;99.90;;;;;;5046144;28;20265;-77
2023/12/30 13:21:25;;;;;;;;;;;8.70;99.90;;;;;;5061707;28;19924;-76
2023/12/30 13:23:50;;;;;;;;;;;8.70;99.90;;;;;;5046394;28;19982;-78
2023/12/30 13:26:18;;;;;;;;;;;8.60;99.90;;;;;;5050245;28;19920;-76
2023/12/30 13:28:43;;;;;;;;;;;8.60;99.90;;;;;;5049829;28;19974;-76
2023/12/30 13:31:09;;;;;;;;;;;8.60;99.90;;;;;;5043688;28;19964;-75
2023/12/30 13:33:35;;;;;;;;;;;8.60;99.90;;;;;;5047160;28;19920;-76
2023/12/30 13:36:06;;;;;;;;;;;8.70;99.90;;;;;;5049799;28;19925;-75
2023/12/30 13:38:37;;;;;;;;;;;8.70;99.90;;;;;;5043276;28;19924;-74
2023/12/30 13:41:04;;;;;;;;;;;8.80;99.90;;;;;;5065716;28;20363;-75
2023/12/30 13:43:30;;;;;;;;;;;8.80;99.90;;;;;;5043513;28;19978;-75
2023/12/30 13:46:11;;;;;;;;;;;8.90;99.90;;;;;;5047305;28;19924;-74
2023/12/30 13:51:21;;;;;;;;;;;8.90;99.90;;;;;;5045910;28;19920;-74
2023/12/30 13:53:46;;;;;;;;;;;8.90;99.90;;;;;;5047990;28;19974;-74
2023/12/30 13:56:17;;;;;;;;;;;9.00;99.90;;;;;;5044569;28;19956;-74
2023/12/30 13:58:46;;;;;;;;;;;9.00;99.90;;;;;;5030674;28;19924;-75
2023/12/30 14:01:12;;;;;;;;;;;8.90;99.90;;;;;;5046180;28;19924;-74
2023/12/30 14:03:39;;;;;;;;;;;9.00;99.90;;;;;;5054669;28;19998;-74
2023/12/30 14:06:06;;;;;;;;;;;8.90;99.90;;;;;;5050207;28;19949;-75
2023/12/30 14:11:00;;;;;;;;;;;8.90;99.90;;;;;;5042778;28;19929;-74
2023/12/30 14:13:27;;;;;;;;;;;8.80;99.90;;;;;;5053447;28;19963;-75
2023/12/30 14:15:52;;;;;;;;;;;8.80;99.90;;;;;;5049394;28;19920;-75
2023/12/30 14:18:18;;;;;;;;;;;8.80;99.90;;;;;;5050006;28;20473;-74
2023/12/30 14:20:45;;;;;;;;;;;8.80;99.90;;;;;;5057381;28;19920;-75
2023/12/30 14:23:10;;;;;;;;;;;8.80;99.90;;;;;;5048166;28;19985;-74
2023/12/30 14:25:36;;;;;;;;;;;8.80;99.90;;;;;;5054605;28;20280;-74
2023/12/30 14:28:03;;;;;;;;;;;8.70;99.90;;;;;;5041289;28;19929;-74